Bassett, NE

4:28 PM CDT on May 04, 2015 (GMT -0500)
NEDOR | | Change Station
CLOSE
Current Station
Personal Weather Station
Location: Newport, NE
Elevation: 2210 ft
Nearby Weather Stations

Elev 2210 ft 42.59 °N, 99.28 °W | Updated 27 minutes ago

Overcast
Overcast
69 °F
Feels Like 69 °F
N
15
Wind Variable Wind from East
Gusts 0.0 mph

Today
High -- | Low -- °F
--% Chance of Precip.
Yesterday
High -- | Low -- °F
Precip. -- in
6:29 AM 8:41 PM
Waxing Gibbous, 99% visible
Pressure 30.12 in
Visibility 10.0 miles
Clouds Overcast 11000 ft
Dew Point 33 °F
Humidity 27%
Rainfall in
Snow Depth Not available.
UV 2 out of 12
Pollen 9.00 out of 12
Air Quality Not available.
Flu Activity Local Activity
METAR KANW 042115Z AUTO 09012G18KT 10SM OVC110 20/M03 A3012 RMK AO2 T02021031

More Conditions Fewer Conditions

Pressure 30.12 in
Visibility 10.0 miles
Clouds Overcast 11000 ft
Dew Point 33 °F
Humidity 27%
Rainfall in
Snow Depth Not available.
UV 2 out of 12
Pollen 9.00 out of 12
Air Quality Not available.
Flu Activity Local Activity
METAR KANW 042115Z AUTO 09012G18KT 10SM OVC110 20/M03 A3012 RMK AO2 T02021031

More Conditions Fewer Conditions

Nepal has a long way to go to dig out and rebuild from a devastating earthquake. We have teamed up with several charities and organizations to make contributing to the relief effort as easy as possible.
How you can help: Portlight Strategies | Red Cross
Nowcast | as of 4:25 PM CDT on May 4, 2015

At 318 PM MDT the leading edge of an area of rain was located from 6 miles southeast of Inman to 7 miles south of Lewellen...moving north at 15 mph. This rain extended south to Grant...North Platte and Oconto. Other scattered showers extended south to the Kansas border. Locations that may be affected include... Interstate 80...Amelia...Inman...Lewellen...Halsey and rose. Heavy showers may produce 1/2 inch of rain in an hour. Otherwise 1/10 to 1/4 inch of rain is expected in an hour as this rain moves slowly north this evening. This rain was part of a vast area of unsettled weather stretching from Washington to southwest Texas. 2 to 3 inches of rain is expected across western and north central Nebraska during the next 7 days as this area of disturbance weather moves through the Central Plains.

×

10-Day Weather Forecast

Almanac

Astronomy

May. 04, 2015 Rise Set
Actual Time
Civil Twilight
Nautical Twilight
Astronomical Twilight
Moon
Length of Visible Light
Length of Day
Tomorrow will be .
, % of the Moon is Illuminated

Today's Extremes

State Highs State Lows

Community

WunderPhotos

Upload Photos

1,818,703 photos uploaded!

WunderBlogs® & News

Nearby

Air Quality

  Air Quality AQ Index Pollutant
Not available.

Snow Depth

Station Depth Elevation

Earthquake Activity

City Distance Mag. Time & Date
Minimum magnitude displayed is 2.5.

Coastal Water Temperatures

Place Temperature

Stations

Nearby Weather Stations

Station Location Temp. Windchill Dew Point Humidity Wind Precip. Elev Updated Type